Time;durP1;ratioP1;P1;durP2;ratioP2;P2;SDS_P1;SDS_P2;PMS_P1;PMS_P2;Temp;Humidity;BMP_temperature;BMP_pressure;BME280_temperature;BME280_humidity;BME280_pressure;Samples;Min_cycle;Max_cycle;Signal;HPM_P1;HPM_P2
2022/12/26 00:00:56;;;;;;;19.17;14.33;;;;;;;;;;4970563;28;20220;-77
2022/12/26 00:03:24;;;;;;;18.57;13.90;;;;;;;;;;4975837;28;20203;-76
2022/12/26 00:05:51;;;;;;;20.73;14.37;;;;;;;;;;4981415;28;20204;-77
2022/12/26 00:08:18;;;;;;;20.20;14.37;;;;;;;;;;4978180;28;20611;-76
2022/12/26 00:10:46;;;;;;;20.40;14.87;;;;;;;;;;4982146;28;21118;-78
2022/12/26 00:13:15;;;;;;;18.93;14.27;;;;;;;;;;4955477;28;20578;-76
2022/12/26 00:16:10;;;;;;;22.70;15.97;;;;;;;;;;4964312;28;20741;-75
2022/12/26 00:18:37;;;;;;;18.87;13.70;;;;;;;;;;4960255;28;20346;-77
2022/12/26 00:21:08;;;;;;;17.27;12.73;;;;;;;;;;4983072;28;20660;-76
2022/12/26 00:23:36;;;;;;;16.90;12.97;;;;;;;;;;4980750;28;20206;-76
2022/12/26 00:26:08;;;;;;;19.07;12.90;;;;;;;;;;4964935;28;20259;-76
2022/12/26 00:28:36;;;;;;;16.60;12.90;;;;;;;;;;4977227;28;20208;-76
2022/12/26 00:31:04;;;;;;;17.50;13.43;;;;;;;;;;4984810;28;20220;-77
2022/12/26 00:33:32;;;;;;;15.87;12.70;;;;;;;;;;4985834;28;20262;-75
2022/12/26 00:36:01;;;;;;;16.30;12.50;;;;;;;;;;4986435;28;20196;-76
2022/12/26 00:38:28;;;;;;;15.70;12.33;;;;;;;;;;4979983;28;20337;-77
2022/12/26 00:40:56;;;;;;;17.67;12.83;;;;;;;;;;4980753;28;20766;-77
2022/12/26 00:43:23;;;;;;;17.03;12.70;;;;;;;;;;4982684;28;20207;-77
2022/12/26 00:45:50;;;;;;;17.37;12.67;;;;;;;;;;4982349;28;20301;-77
2022/12/26 00:48:17;;;;;;;15.50;12.17;;;;;;;;;;4984735;28;20670;-77
2022/12/26 00:50:44;;;;;;;14.47;11.67;;;;;;;;;;4980036;28;20260;-76
2022/12/26 00:53:12;;;;;;;13.27;11.33;;;;;;;;;;4986870;28;20208;-77
2022/12/26 00:55:39;;;;;;;15.43;11.57;;;;;;;;;;4966411;28;20216;-78
2022/12/26 00:58:07;;;;;;;17.50;12.30;;;;;;;;;;4968056;28;20215;-76
2022/12/26 01:00:35;;;;;;;12.27;10.87;;;;;;;;;;4961622;28;20224;-76
2022/12/26 01:03:03;;;;;;;15.07;11.73;;;;;;;;;;4966678;28;20200;-75
2022/12/26 01:05:30;;;;;;;14.43;11.60;;;;;;;;;;4960676;28;20586;-76
2022/12/26 01:07:57;;;;;;;14.80;11.10;;;;;;;;;;4961134;28;20240;-76
2022/12/26 01:10:47;;;;;;;12.90;10.90;;;;;;;;;;4967053;28;20234;-78
2022/12/26 01:13:14;;;;;;;14.53;11.00;;;;;;;;;;4969072;28;20212;-76
2022/12/26 01:15:47;;;;;;;13.63;9.87;;;;;;;;;;4968596;28;20208;-77
2022/12/26 01:18:14;;;;;;;13.67;10.13;;;;;;;;;;4978369;28;20207;-76
2022/12/26 01:20:42;;;;;;;12.43;9.83;;;;;;;;;;4976628;28;20282;-76
2022/12/26 01:23:09;;;;;;;11.60;9.80;;;;;;;;;;4973270;28;20308;-76
2022/12/26 01:25:36;;;;;;;11.63;10.00;;;;;;;;;;4965751;28;20197;-76
2022/12/26 01:28:23;;;;;;;13.63;10.00;;;;;;;;;;4959594;28;20205;-76
2022/12/26 01:30:51;;;;;;;12.73;10.00;;;;;;;;;;4953460;28;20234;-78
2022/12/26 01:33:18;;;;;;;14.27;10.60;;;;;;;;;;4950493;28;20222;-75
2022/12/26 01:35:48;;;;;;;12.57;10.10;;;;;;;;;;4958127;28;21184;-75
2022/12/26 01:38:18;;;;;;;13.77;10.70;;;;;;;;;;4963144;28;20219;-76
2022/12/26 01:40:45;;;;;;;13.93;10.93;;;;;;;;;;4981178;28;20303;-77
2022/12/26 01:43:14;;;;;;;13.40;10.97;;;;;;;;;;4973663;28;20205;-76
2022/12/26 01:45:42;;;;;;;13.90;10.70;;;;;;;;;;4969820;28;20295;-78
2022/12/26 01:48:15;;;;;;;14.60;10.60;;;;;;;;;;4956090;28;20200;-76
2022/12/26 01:50:55;;;;;;;14.47;10.53;;;;;;;;;;4964279;28;20228;-77
2022/12/26 01:53:24;;;;;;;12.83;10.37;;;;;;;;;;4970300;28;20204;-77
2022/12/26 01:55:54;;;;;;;13.10;9.63;;;;;;;;;;4973687;28;20212;-77
2022/12/26 01:58:24;;;;;;;13.37;10.30;;;;;;;;;;4973605;28;20208;-78
2022/12/26 02:00:52;;;;;;;11.60;9.47;;;;;;;;;;4957774;28;20252;-79
2022/12/26 02:06:06;;;;;;;14.33;10.07;;;;;;;;;;4945573;28;20822;-79
2022/12/26 02:08:34;;;;;;;12.03;9.53;;;;;;;;;;4941050;28;20205;-79
2022/12/26 02:11:12;;;;;;;11.97;9.90;;;;;;;;;;4945313;28;20232;-78
2022/12/26 02:13:40;;;;;;;11.80;9.90;;;;;;;;;;4944467;28;24330;-76
2022/12/26 02:16:08;;;;;;;12.30;10.63;;;;;;;;;;4974621;28;20333;-76
2022/12/26 02:18:36;;;;;;;15.13;9.97;;;;;;;;;;4966631;28;20212;-76
2022/12/26 02:21:14;;;;;;;12.50;10.40;;;;;;;;;;4977826;28;20250;-78
2022/12/26 02:23:42;;;;;;;12.97;10.43;;;;;;;;;;4968032;28;20201;-76
2022/12/26 02:26:27;;;;;;;13.63;10.90;;;;;;;;;;4976291;28;20291;-78
2022/12/26 02:29:01;;;;;;;15.30;11.23;;;;;;;;;;4976750;28;20232;-78
2022/12/26 02:31:29;;;;;;;14.00;10.77;;;;;;;;;;4969917;28;20252;-77
2022/12/26 02:33:56;;;;;;;13.73;10.67;;;;;;;;;;4975639;28;20892;-76
2022/12/26 02:36:35;;;;;;;11.33;9.73;;;;;;;;;;4970488;28;20208;-77
2022/12/26 02:39:19;;;;;;;12.23;9.50;;;;;;;;;;4959976;28;20224;-76
2022/12/26 02:42:15;;;;;;;11.07;9.43;;;;;;;;;;4973522;28;20228;-77
2022/12/26 02:47:36;;;;;;;10.70;8.97;;;;;;;;;;4976829;28;20211;-76
2022/12/26 03:13:09;;;;;;;10.23;8.37;;;;;;;;;;4973638;28;20280;-76
2022/12/26 03:18:41;;;;;;;11.03;9.03;;;;;;;;;;4968840;28;20295;-76
2022/12/26 03:21:28;;;;;;;11.80;9.40;;;;;;;;;;4971239;28;20805;-76
2022/12/26 03:23:56;;;;;;;10.57;9.20;;;;;;;;;;4973403;28;21256;-77
2022/12/26 03:26:38;;;;;;;12.47;9.03;;;;;;;;;;4949422;28;20204;-75
2022/12/26 03:32:11;;;;;;;11.90;9.40;;;;;;;;;;4956261;28;20292;-76
2022/12/26 03:34:43;;;;;;;11.43;8.40;;;;;;;;;;4965048;28;21097;-76
2022/12/26 03:37:28;;;;;;;11.07;8.90;;;;;;;;;;4976283;28;20267;-77
2022/12/26 04:20:34;;;;;;;10.97;8.90;;;;;;;;;;4962542;28;20236;-75
2022/12/26 04:46:17;;;;;;;12.57;10.43;;;;;;;;;;4945539;28;20228;-76
2022/12/26 04:51:32;;;;;;;11.50;9.50;;;;;;;;;;4972281;28;20712;-76
2022/12/26 04:53:59;;;;;;;12.60;9.80;;;;;;;;;;4984417;28;20214;-76
2022/12/26 04:56:26;;;;;;;10.80;9.13;;;;;;;;;;4987778;28;20294;-78
2022/12/26 04:58:53;;;;;;;11.93;10.40;;;;;;;;;;4988635;28;20307;-77
2022/12/26 05:09:45;;;;;;;11.17;9.47;;;;;;;;;;4973433;28;20208;-76
2022/12/26 05:12:12;;;;;;;12.40;10.40;;;;;;;;;;4969004;28;20217;-76
2022/12/26 05:14:39;;;;;;;13.10;9.37;;;;;;;;;;4954159;28;20217;-78
2022/12/26 05:31:05;;;;;;;13.63;10.27;;;;;;;;;;4970181;28;20224;-77
2022/12/26 05:36:19;;;;;;;13.90;10.13;;;;;;;;;;4969923;28;20320;-75
2022/12/26 05:38:47;;;;;;;13.63;10.43;;;;;;;;;;4965862;28;20212;-76
2022/12/26 05:41:15;;;;;;;15.07;11.47;;;;;;;;;;4976381;28;20259;-76
2022/12/26 05:43:42;;;;;;;18.97;13.27;;;;;;;;;;4979311;28;20231;-76
2022/12/26 05:46:10;;;;;;;17.67;12.30;;;;;;;;;;4966381;28;20343;-78
2022/12/26 05:48:37;;;;;;;15.20;11.43;;;;;;;;;;4962324;28;21875;-75
2022/12/26 05:51:04;;;;;;;14.37;10.67;;;;;;;;;;4953002;28;20231;-77
2022/12/26 05:53:32;;;;;;;14.27;11.43;;;;;;;;;;4956116;28;20622;-77
2022/12/26 05:56:03;;;;;;;15.67;11.27;;;;;;;;;;4957337;28;20208;-77
2022/12/26 05:58:30;;;;;;;16.87;12.30;;;;;;;;;;4953326;28;21430;-78
2022/12/26 06:01:10;;;;;;;15.90;11.73;;;;;;;;;;4959353;28;20231;-76
2022/12/26 06:03:38;;;;;;;16.60;12.00;;;;;;;;;;4954593;28;20214;-75
2022/12/26 06:06:06;;;;;;;17.10;12.67;;;;;;;;;;4961471;28;20214;-75
2022/12/26 06:08:33;;;;;;;18.33;13.53;;;;;;;;;;4939240;28;20239;-77
2022/12/26 06:11:04;;;;;;;19.60;13.43;;;;;;;;;;4955714;28;21044;-75
2022/12/26 06:13:31;;;;;;;17.10;12.67;;;;;;;;;;4955047;28;20218;-78
2022/12/26 06:15:59;;;;;;;18.00;12.33;;;;;;;;;;4970281;28;20309;-78
2022/12/26 06:18:26;;;;;;;16.60;12.70;;;;;;;;;;4974321;28;20291;-76
2022/12/26 06:20:53;;;;;;;16.50;12.33;;;;;;;;;;4976955;28;20937;-77
2022/12/26 06:23:20;;;;;;;18.80;13.10;;;;;;;;;;4979258;28;20291;-76
2022/12/26 06:25:53;;;;;;;15.97;12.10;;;;;;;;;;4948914;28;20204;-75
2022/12/26 06:28:20;;;;;;;19.17;13.20;;;;;;;;;;4957886;28;20200;-79
2022/12/26 06:30:48;;;;;;;19.37;13.20;;;;;;;;;;4956197;28;20611;-77
2022/12/26 06:33:15;;;;;;;17.53;13.80;;;;;;;;;;4965512;28;20204;-79
2022/12/26 06:35:42;;;;;;;19.43;13.80;;;;;;;;;;4951096;28;21400;-80
2022/12/26 06:38:10;;;;;;;17.60;12.80;;;;;;;;;;4966373;28;20204;-77
2022/12/26 06:40:40;;;;;;;18.23;13.30;;;;;;;;;;4952169;28;20322;-75
2022/12/26 06:43:08;;;;;;;17.93;13.27;;;;;;;;;;4953079;28;20744;-78
2022/12/26 06:45:35;;;;;;;19.00;13.07;;;;;;;;;;4959561;28;20205;-77
2022/12/26 06:48:02;;;;;;;18.67;12.93;;;;;;;;;;4938595;28;20200;-78
2022/12/26 06:50:30;;;;;;;19.43;13.03;;;;;;;;;;4958403;28;20602;-76
2022/12/26 06:52:57;;;;;;;18.20;12.93;;;;;;;;;;4952915;28;20211;-76
2022/12/26 06:55:24;;;;;;;20.50;13.87;;;;;;;;;;4964318;28;20204;-75
2022/12/26 06:57:52;;;;;;;19.60;13.70;;;;;;;;;;4956099;28;20214;-77
2022/12/26 07:00:19;;;;;;;20.20;14.07;;;;;;;;;;4962064;28;20247;-76
2022/12/26 07:02:50;;;;;;;17.87;12.97;;;;;;;;;;4951852;28;20213;-75
2022/12/26 07:05:17;;;;;;;18.90;13.53;;;;;;;;;;4948907;28;20489;-77
2022/12/26 07:07:50;;;;;;;18.53;13.83;;;;;;;;;;4961176;28;20234;-76
2022/12/26 07:10:17;;;;;;;20.03;13.93;;;;;;;;;;4973287;28;20230;-77
2022/12/26 07:12:44;;;;;;;22.27;14.10;;;;;;;;;;4980975;28;20212;-76
2022/12/26 07:15:12;;;;;;;23.27;14.70;;;;;;;;;;4982668;28;20291;-75
2022/12/26 07:17:39;;;;;;;21.83;14.37;;;;;;;;;;4980305;28;20242;-76
2022/12/26 07:20:07;;;;;;;21.20;14.37;;;;;;;;;;4979578;28;20246;-76
2022/12/26 07:22:35;;;;;;;22.77;15.07;;;;;;;;;;4982292;28;20400;-75
2022/12/26 07:25:02;;;;;;;19.83;14.90;;;;;;;;;;4982113;28;20260;-77
2022/12/26 07:27:29;;;;;;;24.30;15.13;;;;;;;;;;4984246;28;20209;-77
2022/12/26 07:29:56;;;;;;;23.00;15.37;;;;;;;;;;4984554;28;20211;-77
2022/12/26 07:32:24;;;;;;;23.27;15.37;;;;;;;;;;4970308;28;20236;-76
2022/12/26 07:34:51;;;;;;;23.40;15.50;;;;;;;;;;4981510;28;20555;-77
2022/12/26 07:37:18;;;;;;;22.43;15.73;;;;;;;;;;4984145;28;20196;-76
2022/12/26 07:39:45;;;;;;;22.47;15.73;;;;;;;;;;4983247;28;20303;-77
2022/12/26 07:42:13;;;;;;;25.40;15.50;;;;;;;;;;4988103;28;20208;-76
2022/12/26 07:44:40;;;;;;;23.00;15.70;;;;;;;;;;4975414;28;20298;-75
2022/12/26 07:47:08;;;;;;;23.50;16.40;;;;;;;;;;4979124;28;20312;-78
2022/12/26 07:49:35;;;;;;;24.60;17.40;;;;;;;;;;4959121;28;20208;-78
2022/12/26 07:52:03;;;;;;;26.33;16.30;;;;;;;;;;4954231;28;20232;-75
2022/12/26 07:54:31;;;;;;;24.30;16.43;;;;;;;;;;4955675;28;23659;-77
2022/12/26 07:56:58;;;;;;;21.70;14.97;;;;;;;;;;4952811;28;20213;-76
2022/12/26 07:59:45;;;;;;;25.50;16.77;;;;;;;;;;4964900;28;20200;-76
2022/12/26 08:02:13;;;;;;;23.47;15.60;;;;;;;;;;4961081;28;20220;-77
2022/12/26 08:04:40;;;;;;;23.27;14.90;;;;;;;;;;4975027;28;20204;-77
2022/12/26 08:07:08;;;;;;;26.40;16.83;;;;;;;;;;4968207;28;20594;-76
2022/12/26 08:09:37;;;;;;;24.37;16.37;;;;;;;;;;4974724;28;20216;-78
2022/12/26 08:12:04;;;;;;;23.77;15.33;;;;;;;;;;4968826;28;20287;-77
2022/12/26 08:14:31;;;;;;;25.77;15.80;;;;;;;;;;4986097;28;20212;-75
2022/12/26 08:16:58;;;;;;;22.30;15.90;;;;;;;;;;4979719;28;20284;-76
2022/12/26 08:19:26;;;;;;;21.37;14.80;;;;;;;;;;4981800;28;20684;-76
2022/12/26 08:21:53;;;;;;;22.40;14.70;;;;;;;;;;4981952;28;20675;-77
2022/12/26 08:24:21;;;;;;;24.10;16.77;;;;;;;;;;4986041;28;20571;-76
2022/12/26 08:26:48;;;;;;;22.50;15.67;;;;;;;;;;4966360;28;20704;-76
2022/12/26 08:29:15;;;;;;;21.70;15.43;;;;;;;;;;4983840;28;20254;-75
2022/12/26 08:31:42;;;;;;;25.13;16.93;;;;;;;;;;4985003;28;20251;-76
2022/12/26 08:34:10;;;;;;;22.67;16.70;;;;;;;;;;4983472;28;20235;-76
2022/12/26 08:36:37;;;;;;;21.20;14.47;;;;;;;;;;4968896;28;20274;-77
2022/12/26 08:39:04;;;;;;;22.40;15.87;;;;;;;;;;4957974;28;20220;-76
2022/12/26 08:41:32;;;;;;;24.90;16.67;;;;;;;;;;4978256;28;20457;-77
2022/12/26 08:43:59;;;;;;;24.23;15.60;;;;;;;;;;4976786;28;20212;-77
2022/12/26 08:46:47;;;;;;;23.00;15.93;;;;;;;;;;4978102;28;20600;-77
2022/12/26 08:49:16;;;;;;;20.23;14.40;;;;;;;;;;4964583;28;20291;-76
2022/12/26 08:51:43;;;;;;;23.17;16.07;;;;;;;;;;4969157;28;20711;-77
2022/12/26 08:54:10;;;;;;;24.90;16.33;;;;;;;;;;4967280;28;20303;-77
2022/12/26 08:56:38;;;;;;;20.83;15.37;;;;;;;;;;4972545;28;20631;-79
2022/12/26 08:59:05;;;;;;;21.60;15.03;;;;;;;;;;4967826;28;20300;-75
2022/12/26 09:01:35;;;;;;;18.10;12.90;;;;;;;;;;4964087;28;20233;-76
2022/12/26 09:04:03;;;;;;;17.57;11.27;;;;;;;;;;4966028;28;20201;-75
2022/12/26 09:06:34;;;;;;;14.67;11.23;;;;;;;;;;4971675;28;20212;-77
2022/12/26 09:09:02;;;;;;;14.43;11.57;;;;;;;;;;4961702;28;20205;-77
2022/12/26 09:11:30;;;;;;;14.00;10.73;;;;;;;;;;4958521;28;20241;-77
2022/12/26 09:13:59;;;;;;;12.87;10.10;;;;;;;;;;4966834;28;20201;-78
2022/12/26 09:16:31;;;;;;;12.03;9.50;;;;;;;;;;4950677;28;20286;-75
2022/12/26 09:19:05;;;;;;;12.93;10.67;;;;;;;;;;4948870;28;20295;-73
2022/12/26 09:21:33;;;;;;;13.73;10.57;;;;;;;;;;4950709;28;20838;-75
2022/12/26 09:24:03;;;;;;;11.60;9.30;;;;;;;;;;4955122;28;20300;-75
2022/12/26 09:26:31;;;;;;;15.23;12.13;;;;;;;;;;4942066;28;20208;-74
2022/12/26 09:28:58;;;;;;;17.47;13.57;;;;;;;;;;4946020;28;20216;-74
2022/12/26 09:31:27;;;;;;;20.87;15.63;;;;;;;;;;4942785;28;20239;-75
2022/12/26 09:33:54;;;;;;;22.57;15.93;;;;;;;;;;4944042;28;20298;-75
2022/12/26 09:36:26;;;;;;;22.90;17.20;;;;;;;;;;4950029;28;20831;-74
2022/12/26 09:38:54;;;;;;;18.47;14.63;;;;;;;;;;4946721;28;20212;-73
2022/12/26 09:41:37;;;;;;;16.87;13.20;;;;;;;;;;4943227;28;20900;-73
2022/12/26 09:44:14;;;;;;;14.23;10.77;;;;;;;;;;4949089;28;20200;-74
2022/12/26 09:46:41;;;;;;;13.90;9.53;;;;;;;;;;4934827;28;20215;-73
2022/12/26 09:49:08;;;;;;;13.20;9.03;;;;;;;;;;4942959;28;20209;-73
2022/12/26 09:51:37;;;;;;;10.77;8.60;;;;;;;;;;4959829;28;20324;-73
2022/12/26 09:54:06;;;;;;;10.23;8.30;;;;;;;;;;4951002;28;20227;-73
2022/12/26 09:56:36;;;;;;;9.50;7.80;;;;;;;;;;4947591;28;20295;-75
2022/12/26 09:59:25;;;;;;;9.40;7.63;;;;;;;;;;4949544;28;20707;-74
2022/12/26 10:01:52;;;;;;;8.60;6.97;;;;;;;;;;4957918;28;20235;-74
2022/12/26 10:04:28;;;;;;;8.27;7.40;;;;;;;;;;4953518;28;20200;-74
2022/12/26 10:07:17;;;;;;;7.13;5.70;;;;;;;;;;4951114;28;20333;-73
2022/12/26 10:10:03;;;;;;;8.10;5.33;;;;;;;;;;4920307;28;20203;-73
2022/12/26 10:12:36;;;;;;;8.63;6.30;;;;;;;;;;4948624;28;20334;-73
2022/12/26 10:15:23;;;;;;;7.27;5.63;;;;;;;;;;4938150;28;20325;-73
2022/12/26 10:17:55;;;;;;;6.33;5.73;;;;;;;;;;4927453;28;20303;-74
2022/12/26 10:20:28;;;;;;;8.33;6.57;;;;;;;;;;4951250;28;20238;-73
2022/12/26 10:23:01;;;;;;;5.87;4.77;;;;;;;;;;4953115;28;20698;-73
2022/12/26 10:25:36;;;;;;;6.03;4.40;;;;;;;;;;4947707;28;20291;-73
2022/12/26 10:28:04;;;;;;;4.67;4.27;;;;;;;;;;4929042;28;20214;-73
2022/12/26 10:30:37;;;;;;;4.37;3.97;;;;;;;;;;4942032;28;22559;-72
2022/12/26 10:33:09;;;;;;;3.23;2.93;;;;;;;;;;4948895;28;20212;-72
2022/12/26 10:35:41;;;;;;;3.50;3.20;;;;;;;;;;4952770;28;23448;-74
2022/12/26 10:38:16;;;;;;;3.73;2.77;;;;;;;;;;4955295;28;20667;-74
2022/12/26 10:40:53;;;;;;;2.87;2.67;;;;;;;;;;4940974;28;20235;-74
2022/12/26 10:43:24;;;;;;;2.20;2.10;;;;;;;;;;4956813;28;20212;-74
2022/12/26 10:45:57;;;;;;;2.63;2.33;;;;;;;;;;4950154;28;21097;-73
2022/12/26 10:48:26;;;;;;;2.00;1.90;;;;;;;;;;4938286;28;20295;-74
2022/12/26 10:50:54;;;;;;;2.67;1.90;;;;;;;;;;4936938;28;20619;-71
2022/12/26 10:53:22;;;;;;;1.80;1.70;;;;;;;;;;4922903;28;20420;-74
2022/12/26 10:55:50;;;;;;;1.97;1.60;;;;;;;;;;4920807;28;20908;-73
2022/12/26 10:58:22;;;;;;;2.70;2.20;;;;;;;;;;4937438;28;20208;-73
2022/12/26 11:00:49;;;;;;;1.30;1.30;;;;;;;;;;4936853;28;20724;-73
2022/12/26 11:03:18;;;;;;;1.13;1.13;;;;;;;;;;4951063;28;20208;-74
2022/12/26 11:05:45;;;;;;;1.20;1.20;;;;;;;;;;4931865;28;20434;-74
2022/12/26 11:08:46;;;;;;;1.10;1.10;;;;;;;;;;4933034;28;20204;-75
2022/12/26 11:11:13;;;;;;;3.67;3.13;;;;;;;;;;4946983;28;20244;-74
2022/12/26 11:13:48;;;;;;;1.60;1.50;;;;;;;;;;4944922;28;20215;-74
2022/12/26 11:16:23;;;;;;;1.30;1.20;;;;;;;;;;4923616;28;20211;-74
2022/12/26 11:18:51;;;;;;;1.10;1.10;;;;;;;;;;4967506;28;20903;-75
2022/12/26 11:21:18;;;;;;;1.53;1.43;;;;;;;;;;4959241;28;20861;-73
2022/12/26 11:23:46;;;;;;;4.13;2.60;;;;;;;;;;4951650;28;20410;-74
2022/12/26 11:26:24;;;;;;;1.40;1.30;;;;;;;;;;4959303;28;21007;-74
2022/12/26 11:29:28;;;;;;;1.53;1.43;;;;;;;;;;4945834;28;20661;-73
2022/12/26 11:31:59;;;;;;;1.50;1.40;;;;;;;;;;4864532;29;20770;-73
2022/12/26 11:34:33;;;;;;;1.23;1.23;;;;;;;;;;4933049;28;20324;-73
2022/12/26 11:37:00;;;;;;;1.20;1.20;;;;;;;;;;4937253;28;20208;-73
2022/12/26 11:39:32;;;;;;;1.10;1.10;;;;;;;;;;4962272;28;20243;-73
2022/12/26 11:42:09;;;;;;;4.07;1.50;;;;;;;;;;4942449;28;21354;-73
2022/12/26 11:44:39;;;;;;;1.30;1.20;;;;;;;;;;4916799;28;20218;-73
2022/12/26 11:47:08;;;;;;;1.27;1.10;;;;;;;;;;4921557;28;20208;-74
2022/12/26 11:49:39;;;;;;;1.23;1.17;;;;;;;;;;4928667;28;20214;-73
2022/12/26 11:52:24;;;;;;;1.03;0.97;;;;;;;;;;4928087;28;20818;-73
2022/12/26 11:54:52;;;;;;;1.03;1.03;;;;;;;;;;4939446;28;20213;-73
2022/12/26 11:57:21;;;;;;;1.13;1.13;;;;;;;;;;4944195;28;20205;-73
2022/12/26 11:59:49;;;;;;;1.23;1.23;;;;;;;;;;4937324;28;20832;-73
2022/12/26 12:02:18;;;;;;;1.13;0.93;;;;;;;;;;4929577;28;20236;-73
2022/12/26 12:04:46;;;;;;;1.00;1.00;;;;;;;;;;4920931;28;20402;-73
2022/12/26 12:07:22;;;;;;;1.13;1.03;;;;;;;;;;4896562;28;20627;-73
2022/12/26 12:09:53;;;;;;;1.20;1.20;;;;;;;;;;4909634;28;20207;-74
2022/12/26 12:12:40;;;;;;;1.00;1.00;;;;;;;;;;4926574;28;20469;-73
2022/12/26 12:15:13;;;;;;;0.80;0.80;;;;;;;;;;4915509;28;20220;-74
2022/12/26 12:18:02;;;;;;;1.03;1.03;;;;;;;;;;4906309;28;20217;-74
2022/12/26 12:20:35;;;;;;;1.37;0.80;;;;;;;;;;4927150;28;20425;-74
2022/12/26 12:23:21;;;;;;;1.00;1.00;;;;;;;;;;4948456;28;20595;-72
2022/12/26 12:25:51;;;;;;;0.90;0.90;;;;;;;;;;4952045;28;20630;-72
2022/12/26 12:28:48;;;;;;;1.20;1.03;;;;;;;;;;4945427;28;20208;-73
2022/12/26 12:31:18;;;;;;;1.13;1.00;;;;;;;;;;4862014;28;20765;-72
2022/12/26 12:34:00;;;;;;;1.00;1.00;;;;;;;;;;4933355;28;20209;-74
2022/12/26 12:36:27;;;;;;;1.23;0.80;;;;;;;;;;4900494;28;20598;-72
2022/12/26 12:39:01;;;;;;;1.10;0.97;;;;;;;;;;4904919;28;20209;-72
2022/12/26 12:41:40;;;;;;;1.20;1.13;;;;;;;;;;4908828;28;22292;-72
2022/12/26 12:44:13;;;;;;;0.90;0.90;;;;;;;;;;4903377;28;20212;-73
2022/12/26 12:46:43;;;;;;;0.90;0.90;;;;;;;;;;4886844;28;20209;-74
2022/12/26 12:49:22;;;;;;;1.23;1.20;;;;;;;;;;4936030;28;20205;-75
2022/12/26 12:51:56;;;;;;;0.90;0.90;;;;;;;;;;4923622;28;20650;-73
2022/12/26 12:54:31;;;;;;;1.03;1.03;;;;;;;;;;4931737;28;23863;-75
2022/12/26 12:57:17;;;;;;;0.90;0.90;;;;;;;;;;4928284;28;20564;-73
2022/12/26 12:59:53;;;;;;;1.20;1.20;;;;;;;;;;4951219;28;20219;-75
2022/12/26 13:02:25;;;;;;;1.10;1.00;;;;;;;;;;4951394;28;20220;-73
2022/12/26 13:04:59;;;;;;;0.90;0.90;;;;;;;;;;4946289;28;20766;-73
2022/12/26 13:07:37;;;;;;;1.10;1.10;;;;;;;;;;4941489;28;20204;-72
2022/12/26 13:10:22;;;;;;;1.10;1.10;;;;;;;;;;4948756;28;20339;-73
2022/12/26 13:12:50;;;;;;;1.30;1.20;;;;;;;;;;4938131;28;20211;-73
2022/12/26 13:15:29;;;;;;;1.10;1.10;;;;;;;;;;4946622;28;20208;-74
2022/12/26 13:18:16;;;;;;;1.00;1.00;;;;;;;;;;4930788;28;21602;-74
2022/12/26 13:20:46;;;;;;;0.90;0.90;;;;;;;;;;4944915;28;20256;-75
2022/12/26 13:26:20;;;;;;;0.80;0.80;;;;;;;;;;4975796;28;20208;-73
2022/12/26 13:29:00;;;;;;;0.70;0.70;;;;;;;;;;4972298;28;20303;-74
2022/12/26 13:31:37;;;;;;;2.00;1.07;;;;;;;;;;4978013;28;20323;-73
2022/12/26 13:34:09;;;;;;;1.67;0.77;;;;;;;;;;4944576;28;20222;-73
2022/12/26 13:36:43;;;;;;;0.90;0.90;;;;;;;;;;4941286;28;20216;-74
2022/12/26 13:39:31;;;;;;;0.90;0.90;;;;;;;;;;4934294;28;20299;-74
2022/12/26 13:44:53;;;;;;;1.00;1.00;;;;;;;;;;4941954;28;20208;-72
2022/12/26 13:47:49;;;;;;;0.83;0.83;;;;;;;;;;4941721;28;20354;-74
2022/12/26 13:50:35;;;;;;;0.90;0.90;;;;;;;;;;4926656;28;20830;-74
2022/12/26 13:53:03;;;;;;;0.80;0.80;;;;;;;;;;4939556;28;21042;-73
2022/12/26 13:55:40;;;;;;;0.70;0.70;;;;;;;;;;4943983;28;21680;-73
2022/12/26 13:58:19;;;;;;;0.90;0.70;;;;;;;;;;4929557;28;20683;-73
2022/12/26 14:00:47;;;;;;;5.00;0.90;;;;;;;;;;4931801;28;21695;-75
2022/12/26 14:03:53;;;;;;;0.80;0.80;;;;;;;;;;4943587;28;20761;-73
2022/12/26 14:06:26;;;;;;;2.10;1.00;;;;;;;;;;4867024;29;20694;-72
2022/12/26 14:09:09;;;;;;;0.70;0.70;;;;;;;;;;4915727;28;20368;-74
2022/12/26 14:11:36;;;;;;;0.70;0.70;;;;;;;;;;4936527;28;20231;-73
2022/12/26 14:14:27;;;;;;;0.80;0.80;;;;;;;;;;4947932;28;20560;-73
2022/12/26 14:16:57;;;;;;;1.00;1.00;;;;;;;;;;4911830;28;20596;-73
2022/12/26 14:19:34;;;;;;;0.77;0.77;;;;;;;;;;4938269;28;20201;-72
2022/12/26 14:22:21;;;;;;;0.80;0.80;;;;;;;;;;4943360;28;20220;-73
2022/12/26 14:24:55;;;;;;;0.87;0.87;;;;;;;;;;4967012;28;20196;-73
2022/12/26 14:27:32;;;;;;;0.80;0.80;;;;;;;;;;4969657;28;20303;-73
2022/12/26 14:30:18;;;;;;;0.90;0.90;;;;;;;;;;4971614;28;20200;-73
2022/12/26 14:32:48;;;;;;;0.80;0.80;;;;;;;;;;4969224;28;20425;-73
2022/12/26 14:35:31;;;;;;;0.90;0.90;;;;;;;;;;4963147;28;20223;-73
2022/12/26 14:37:58;;;;;;;0.70;0.70;;;;;;;;;;4947187;28;20684;-73
2022/12/26 14:40:30;;;;;;;0.90;0.90;;;;;;;;;;4943853;28;20561;-72
2022/12/26 14:43:25;;;;;;;0.80;0.80;;;;;;;;;;4941775;28;20319;-73
2022/12/26 14:45:53;;;;;;;0.90;0.90;;;;;;;;;;4939009;28;20212;-73
2022/12/26 14:48:21;;;;;;;0.80;0.80;;;;;;;;;;4943690;28;20216;-74
2022/12/26 14:50:51;;;;;;;0.90;0.90;;;;;;;;;;4946732;28;20228;-73
2022/12/26 14:53:21;;;;;;;0.97;0.97;;;;;;;;;;4947325;28;20240;-75
2022/12/26 14:55:52;;;;;;;0.93;0.93;;;;;;;;;;4945329;28;20212;-73
2022/12/26 14:58:25;;;;;;;0.87;0.87;;;;;;;;;;4950674;28;20212;-75
2022/12/26 15:00:53;;;;;;;0.70;0.70;;;;;;;;;;4936534;28;20232;-73
2022/12/26 15:03:32;;;;;;;1.00;1.00;;;;;;;;;;4909930;28;20264;-73
2022/12/26 15:06:18;;;;;;;1.47;1.00;;;;;;;;;;4913302;28;20204;-73
2022/12/26 15:08:48;;;;;;;1.20;0.90;;;;;;;;;;4958648;28;20839;-73
2022/12/26 15:11:34;;;;;;;1.00;1.00;;;;;;;;;;4951566;28;20320;-73
2022/12/26 15:14:14;;;;;;;0.80;0.80;;;;;;;;;;4940003;28;20205;-73
2022/12/26 15:16:59;;;;;;;0.97;0.97;;;;;;;;;;4968013;28;20244;-74
2022/12/26 15:19:41;;;;;;;1.00;1.00;;;;;;;;;;4944905;28;20215;-74
2022/12/26 15:22:21;;;;;;;0.80;0.80;;;;;;;;;;4960355;28;20232;-71
2022/12/26 15:24:48;;;;;;;0.80;0.80;;;;;;;;;;4962495;28;20287;-72
2022/12/26 15:27:44;;;;;;;0.90;0.90;;;;;;;;;;4954920;28;20216;-71
2022/12/26 15:30:12;;;;;;;0.73;0.73;;;;;;;;;;4947960;28;20247;-73
2022/12/26 15:32:48;;;;;;;0.90;0.90;;;;;;;;;;4963830;28;20271;-73
2022/12/26 15:35:25;;;;;;;0.90;0.90;;;;;;;;;;4940665;28;20213;-73
2022/12/26 15:38:21;;;;;;;0.90;0.90;;;;;;;;;;4948088;28;20226;-72
2022/12/26 15:40:55;;;;;;;0.90;0.90;;;;;;;;;;4928002;28;20236;-73
2022/12/26 15:43:51;;;;;;;0.90;0.90;;;;;;;;;;4949558;28;20221;-74
2022/12/26 15:46:29;;;;;;;1.00;1.00;;;;;;;;;;4916791;28;20200;-74
2022/12/26 15:49:10;;;;;;;1.10;1.10;;;;;;;;;;4963341;28;20201;-74
2022/12/26 15:51:38;;;;;;;1.00;1.00;;;;;;;;;;4958009;28;20228;-73
2022/12/26 15:54:14;;;;;;;0.93;0.93;;;;;;;;;;4922422;28;20343;-72
2022/12/26 15:56:54;;;;;;;1.10;1.10;;;;;;;;;;4944074;28;20203;-72
2022/12/26 15:59:40;;;;;;;0.97;0.97;;;;;;;;;;4943191;28;20307;-72
2022/12/26 16:02:14;;;;;;;1.00;1.00;;;;;;;;;;4946636;28;20235;-73
2022/12/26 16:04:51;;;;;;;1.03;1.00;;;;;;;;;;4933994;28;20297;-72
2022/12/26 16:07:40;;;;;;;1.00;1.00;;;;;;;;;;4951793;28;20234;-72
2022/12/26 16:10:25;;;;;;;1.10;1.10;;;;;;;;;;4952622;28;20363;-74
2022/12/26 16:13:03;;;;;;;1.00;1.00;;;;;;;;;;4964180;28;20218;-72
2022/12/26 16:15:31;;;;;;;1.00;1.00;;;;;;;;;;4943532;28;20216;-73
2022/12/26 16:18:14;;;;;;;1.10;1.10;;;;;;;;;;4958323;28;20650;-73
2022/12/26 16:23:30;;;;;;;0.90;0.90;;;;;;;;;;4954571;28;20235;-72
2022/12/26 16:26:01;;;;;;;1.10;1.10;;;;;;;;;;4932202;28;20201;-72
2022/12/26 16:28:35;;;;;;;1.30;1.30;;;;;;;;;;4942544;28;20208;-72
2022/12/26 16:31:03;;;;;;;1.03;1.03;;;;;;;;;;4948704;28;20321;-73
2022/12/26 16:33:40;;;;;;;1.37;1.27;;;;;;;;;;4954445;28;20239;-72
2022/12/26 16:36:09;;;;;;;1.20;1.17;;;;;;;;;;4955520;28;20216;-72
2022/12/26 16:38:37;;;;;;;1.13;1.10;;;;;;;;;;4930371;28;20208;-72
2022/12/26 16:41:21;;;;;;;1.20;1.10;;;;;;;;;;4955785;28;20488;-73
2022/12/26 16:43:49;;;;;;;1.20;1.20;;;;;;;;;;4954267;28;20239;-72
2022/12/26 16:46:23;;;;;;;1.30;1.20;;;;;;;;;;4950363;28;20204;-72
2022/12/26 16:48:58;;;;;;;1.50;1.50;;;;;;;;;;4950937;28;20212;-72
2022/12/26 16:51:49;;;;;;;1.30;1.30;;;;;;;;;;4948875;28;20318;-73
2022/12/26 16:54:25;;;;;;;1.90;1.80;;;;;;;;;;4939012;28;20259;-73
2022/12/26 16:56:57;;;;;;;3.10;2.80;;;;;;;;;;4931047;28;20685;-73
2022/12/26 16:59:28;;;;;;;2.87;2.60;;;;;;;;;;4947134;28;20212;-72
2022/12/26 17:01:56;;;;;;;1.80;1.70;;;;;;;;;;4943288;28;20227;-71
2022/12/26 17:04:25;;;;;;;2.00;1.90;;;;;;;;;;4943287;28;20277;-72
2022/12/26 17:06:58;;;;;;;2.00;1.90;;;;;;;;;;4954456;28;20204;-72
2022/12/26 17:09:26;;;;;;;1.60;1.50;;;;;;;;;;4940063;28;20217;-72
2022/12/26 17:12:06;;;;;;;1.50;1.40;;;;;;;;;;4943192;28;20623;-73
2022/12/26 17:14:38;;;;;;;1.80;1.70;;;;;;;;;;4957625;28;20207;-73
2022/12/26 17:17:25;;;;;;;2.33;2.10;;;;;;;;;;4957623;28;20216;-72